sensor_id;sensor_type;location;lat;lon;timestamp;P1;durP1;ratioP1;P2;durP2;ratioP2
52322;SDS011;38263;52.920;6.238;2022-11-28T00:00:26;16.90;;;10.45;;
52322;SDS011;38263;52.920;6.238;2022-11-28T00:02:52;16.52;;;10.38;;
52322;SDS011;38263;52.920;6.238;2022-11-28T00:05:18;20.00;;;10.93;;
52322;SDS011;38263;52.920;6.238;2022-11-28T00:07:44;17.52;;;11.40;;
52322;SDS011;38263;52.920;6.238;2022-11-28T00:10:09;15.50;;;10.30;;
52322;SDS011;38263;52.920;6.238;2022-11-28T00:12:36;16.30;;;10.35;;
52322;SDS011;38263;52.920;6.238;2022-11-28T00:15:02;18.38;;;10.73;;
52322;SDS011;38263;52.920;6.238;2022-11-28T00:17:28;18.75;;;10.95;;
52322;SDS011;38263;52.920;6.238;2022-11-28T00:19:54;17.35;;;10.10;;
52322;SDS011;38263;52.920;6.238;2022-11-28T00:22:20;17.38;;;10.68;;
52322;SDS011;38263;52.920;6.238;2022-11-28T00:24:45;18.73;;;10.07;;
52322;SDS011;38263;52.920;6.238;2022-11-28T00:27:11;18.58;;;10.73;;
52322;SDS011;38263;52.920;6.238;2022-11-28T00:29:37;17.88;;;10.85;;
52322;SDS011;38263;52.920;6.238;2022-11-28T00:32:03;16.00;;;9.23;;
52322;SDS011;38263;52.920;6.238;2022-11-28T00:34:29;16.98;;;10.45;;
52322;SDS011;38263;52.920;6.238;2022-11-28T00:36:55;18.17;;;9.43;;
52322;SDS011;38263;52.920;6.238;2022-11-28T00:39:21;16.83;;;11.00;;
52322;SDS011;38263;52.920;6.238;2022-11-28T00:41:46;13.00;;;8.98;;
52322;SDS011;38263;52.920;6.238;2022-11-28T00:44:12;15.02;;;9.65;;
52322;SDS011;38263;52.920;6.238;2022-11-28T00:46:38;13.65;;;9.32;;
52322;SDS011;38263;52.920;6.238;2022-11-28T00:49:04;14.27;;;9.45;;
52322;SDS011;38263;52.920;6.238;2022-11-28T00:51:30;17.33;;;9.20;;
52322;SDS011;38263;52.920;6.238;2022-11-28T00:53:58;17.05;;;10.32;;
52322;SDS011;38263;52.920;6.238;2022-11-28T00:56:26;14.38;;;9.45;;
52322;SDS011;38263;52.920;6.238;2022-11-28T00:58:54;14.98;;;10.30;;
52322;SDS011;38263;52.920;6.238;2022-11-28T01:01:22;15.63;;;10.18;;
52322;SDS011;38263;52.920;6.238;2022-11-28T01:03:50;11.30;;;8.13;;
52322;SDS011;38263;52.920;6.238;2022-11-28T01:06:21;18.25;;;11.05;;
52322;SDS011;38263;52.920;6.238;2022-11-28T01:08:54;16.23;;;10.32;;
52322;SDS011;38263;52.920;6.238;2022-11-28T01:11:26;15.38;;;9.88;;
52322;SDS011;38263;52.920;6.238;2022-11-28T01:13:53;12.52;;;9.80;;
52322;SDS011;38263;52.920;6.238;2022-11-28T01:16:19;15.75;;;9.85;;
52322;SDS011;38263;52.920;6.238;2022-11-28T01:18:45;16.05;;;10.43;;
52322;SDS011;38263;52.920;6.238;2022-11-28T01:21:11;17.30;;;10.85;;
52322;SDS011;38263;52.920;6.238;2022-11-28T01:23:36;17.92;;;10.75;;
52322;SDS011;38263;52.920;6.238;2022-11-28T01:26:03;16.40;;;9.32;;
52322;SDS011;38263;52.920;6.238;2022-11-28T01:28:31;22.73;;;11.52;;
52322;SDS011;38263;52.920;6.238;2022-11-28T01:31:01;23.35;;;12.45;;
52322;SDS011;38263;52.920;6.238;2022-11-28T01:33:27;19.25;;;12.82;;
52322;SDS011;38263;52.920;6.238;2022-11-28T01:35:53;18.05;;;11.75;;
52322;SDS011;38263;52.920;6.238;2022-11-28T01:38:19;22.45;;;12.68;;
52322;SDS011;38263;52.920;6.238;2022-11-28T01:40:45;22.27;;;13.43;;
52322;SDS011;38263;52.920;6.238;2022-11-28T01:43:11;25.13;;;14.13;;
52322;SDS011;38263;52.920;6.238;2022-11-28T01:45:36;25.58;;;14.75;;
52322;SDS011;38263;52.920;6.238;2022-11-28T01:48:04;21.90;;;14.80;;
52322;SDS011;38263;52.920;6.238;2022-11-28T01:50:32;24.15;;;14.27;;
52322;SDS011;38263;52.920;6.238;2022-11-28T01:53:00;27.77;;;15.43;;
52322;SDS011;38263;52.920;6.238;2022-11-28T01:55:31;26.10;;;16.33;;
52322;SDS011;38263;52.920;6.238;2022-11-28T01:57:59;21.80;;;14.95;;
52322;SDS011;38263;52.920;6.238;2022-11-28T02:00:25;25.60;;;16.23;;
52322;SDS011;38263;52.920;6.238;2022-11-28T02:02:53;27.85;;;16.67;;
52322;SDS011;38263;52.920;6.238;2022-11-28T02:05:24;31.60;;;16.17;;
52322;SDS011;38263;52.920;6.238;2022-11-28T02:07:50;26.95;;;16.02;;
52322;SDS011;38263;52.920;6.238;2022-11-28T02:10:17;26.75;;;15.60;;
52322;SDS011;38263;52.920;6.238;2022-11-28T02:15:42;26.35;;;16.55;;
52322;SDS011;38263;52.920;6.238;2022-11-28T02:21:44;26.80;;;16.50;;
52322;SDS011;38263;52.920;6.238;2022-11-28T02:27:14;24.42;;;15.27;;
52322;SDS011;38263;52.920;6.238;2022-11-28T02:32:20;20.33;;;13.17;;
52322;SDS011;38263;52.920;6.238;2022-11-28T02:40:45;26.75;;;14.70;;
52322;SDS011;38263;52.920;6.238;2022-11-28T02:43:24;31.05;;;16.30;;
52322;SDS011;38263;52.920;6.238;2022-11-28T02:48:50;24.13;;;16.13;;
52322;SDS011;38263;52.920;6.238;2022-11-28T02:54:02;29.27;;;16.80;;
52322;SDS011;38263;52.920;6.238;2022-11-28T02:56:29;27.88;;;16.75;;
52322;SDS011;38263;52.920;6.238;2022-11-28T02:58:55;28.55;;;17.48;;
52322;SDS011;38263;52.920;6.238;2022-11-28T03:01:28;28.90;;;17.70;;
52322;SDS011;38263;52.920;6.238;2022-11-28T03:04:06;27.33;;;18.45;;
52322;SDS011;38263;52.920;6.238;2022-11-28T03:06:40;31.58;;;18.48;;
52322;SDS011;38263;52.920;6.238;2022-11-28T03:14:42;32.38;;;21.60;;
52322;SDS011;38263;52.920;6.238;2022-11-28T03:17:37;28.00;;;17.58;;
52322;SDS011;38263;52.920;6.238;2022-11-28T03:20:29;33.10;;;20.30;;
52322;SDS011;38263;52.920;6.238;2022-11-28T03:23:14;32.85;;;18.67;;
52322;SDS011;38263;52.920;6.238;2022-11-28T03:25:56;30.42;;;19.58;;
52322;SDS011;38263;52.920;6.238;2022-11-28T03:30:59;35.55;;;21.15;;
52322;SDS011;38263;52.920;6.238;2022-11-28T03:33:28;32.42;;;18.88;;
52322;SDS011;38263;52.920;6.238;2022-11-28T03:35:59;35.00;;;20.02;;
52322;SDS011;38263;52.920;6.238;2022-11-28T03:38:33;32.88;;;20.30;;
52322;SDS011;38263;52.920;6.238;2022-11-28T03:41:06;33.95;;;21.17;;
52322;SDS011;38263;52.920;6.238;2022-11-28T03:43:40;31.63;;;20.77;;
52322;SDS011;38263;52.920;6.238;2022-11-28T03:46:10;30.85;;;20.30;;
52322;SDS011;38263;52.920;6.238;2022-11-28T03:48:44;36.42;;;21.48;;
52322;SDS011;38263;52.920;6.238;2022-11-28T03:51:13;33.35;;;20.35;;
52322;SDS011;38263;52.920;6.238;2022-11-28T03:53:46;32.17;;;20.73;;
52322;SDS011;38263;52.920;6.238;2022-11-28T03:56:16;32.08;;;19.58;;
52322;SDS011;38263;52.920;6.238;2022-11-28T03:58:50;28.63;;;18.33;;
52322;SDS011;38263;52.920;6.238;2022-11-28T04:01:35;29.85;;;17.52;;
52322;SDS011;38263;52.920;6.238;2022-11-28T04:06:59;32.15;;;19.13;;
52322;SDS011;38263;52.920;6.238;2022-11-28T04:09:40;32.75;;;18.65;;
52322;SDS011;38263;52.920;6.238;2022-11-28T04:12:32;34.95;;;19.83;;
52322;SDS011;38263;52.920;6.238;2022-11-28T04:15:31;31.08;;;19.25;;
52322;SDS011;38263;52.920;6.238;2022-11-28T04:17:59;31.23;;;19.30;;
52322;SDS011;38263;52.920;6.238;2022-11-28T04:23:17;30.00;;;18.88;;
52322;SDS011;38263;52.920;6.238;2022-11-28T04:25:46;30.52;;;20.30;;
52322;SDS011;38263;52.920;6.238;2022-11-28T04:28:17;32.97;;;18.65;;
52322;SDS011;38263;52.920;6.238;2022-11-28T04:30:46;27.60;;;17.83;;
52322;SDS011;38263;52.920;6.238;2022-11-28T04:33:15;27.25;;;18.10;;
52322;SDS011;38263;52.920;6.238;2022-11-28T04:35:45;30.80;;;19.30;;
52322;SDS011;38263;52.920;6.238;2022-11-28T04:38:14;31.95;;;20.05;;
52322;SDS011;38263;52.920;6.238;2022-11-28T04:40:46;28.98;;;18.85;;
52322;SDS011;38263;52.920;6.238;2022-11-28T04:43:19;36.00;;;19.80;;
52322;SDS011;38263;52.920;6.238;2022-11-28T04:46:05;30.15;;;19.67;;
52322;SDS011;38263;52.920;6.238;2022-11-28T04:48:34;36.08;;;18.45;;
52322;SDS011;38263;52.920;6.238;2022-11-28T04:54:10;29.02;;;18.13;;
52322;SDS011;38263;52.920;6.238;2022-11-28T04:56:59;28.98;;;17.50;;
52322;SDS011;38263;52.920;6.238;2022-11-28T04:59:36;30.63;;;17.45;;
52322;SDS011;38263;52.920;6.238;2022-11-28T05:02:03;32.75;;;17.88;;
52322;SDS011;38263;52.920;6.238;2022-11-28T05:04:30;28.63;;;17.50;;
52322;SDS011;38263;52.920;6.238;2022-11-28T05:07:03;27.52;;;16.27;;
52322;SDS011;38263;52.920;6.238;2022-11-28T05:09:30;28.70;;;17.27;;
52322;SDS011;38263;52.920;6.238;2022-11-28T05:11:56;29.25;;;18.27;;
52322;SDS011;38263;52.920;6.238;2022-11-28T05:14:21;25.27;;;16.92;;
52322;SDS011;38263;52.920;6.238;2022-11-28T05:16:47;24.13;;;15.18;;
52322;SDS011;38263;52.920;6.238;2022-11-28T05:19:13;23.67;;;16.10;;
52322;SDS011;38263;52.920;6.238;2022-11-28T05:21:40;24.00;;;15.25;;
52322;SDS011;38263;52.920;6.238;2022-11-28T05:24:05;22.48;;;15.25;;
52322;SDS011;38263;52.920;6.238;2022-11-28T05:26:31;26.73;;;15.85;;
52322;SDS011;38263;52.920;6.238;2022-11-28T05:28:59;23.98;;;15.60;;
52322;SDS011;38263;52.920;6.238;2022-11-28T05:31:26;26.30;;;17.10;;
52322;SDS011;38263;52.920;6.238;2022-11-28T05:33:52;27.25;;;16.70;;
52322;SDS011;38263;52.920;6.238;2022-11-28T05:36:18;22.25;;;14.85;;
52322;SDS011;38263;52.920;6.238;2022-11-28T05:38:44;24.95;;;15.50;;
52322;SDS011;38263;52.920;6.238;2022-11-28T05:41:16;28.70;;;16.50;;
52322;SDS011;38263;52.920;6.238;2022-11-28T05:43:43;25.10;;;16.48;;
52322;SDS011;38263;52.920;6.238;2022-11-28T05:46:09;25.20;;;15.48;;
52322;SDS011;38263;52.920;6.238;2022-11-28T05:48:35;26.63;;;17.17;;
52322;SDS011;38263;52.920;6.238;2022-11-28T05:51:02;26.40;;;17.30;;
52322;SDS011;38263;52.920;6.238;2022-11-28T05:53:28;29.13;;;16.70;;
52322;SDS011;38263;52.920;6.238;2022-11-28T05:55:53;26.15;;;16.92;;
52322;SDS011;38263;52.920;6.238;2022-11-28T05:58:19;29.17;;;17.05;;
52322;SDS011;38263;52.920;6.238;2022-11-28T06:00:44;27.15;;;16.35;;
52322;SDS011;38263;52.920;6.238;2022-11-28T06:03:10;25.70;;;16.45;;
52322;SDS011;38263;52.920;6.238;2022-11-28T06:05:37;30.77;;;18.00;;
52322;SDS011;38263;52.920;6.238;2022-11-28T06:08:04;34.20;;;17.52;;
52322;SDS011;38263;52.920;6.238;2022-11-28T06:10:30;29.02;;;17.00;;
52322;SDS011;38263;52.920;6.238;2022-11-28T06:12:56;27.65;;;15.88;;
52322;SDS011;38263;52.920;6.238;2022-11-28T06:15:21;27.10;;;15.52;;
52322;SDS011;38263;52.920;6.238;2022-11-28T06:17:47;27.90;;;16.63;;
52322;SDS011;38263;52.920;6.238;2022-11-28T06:20:12;28.98;;;16.08;;
52322;SDS011;38263;52.920;6.238;2022-11-28T06:22:38;25.30;;;15.63;;
52322;SDS011;38263;52.920;6.238;2022-11-28T06:25:04;30.70;;;16.52;;
52322;SDS011;38263;52.920;6.238;2022-11-28T06:27:29;25.92;;;15.35;;
52322;SDS011;38263;52.920;6.238;2022-11-28T06:29:55;27.02;;;16.17;;
52322;SDS011;38263;52.920;6.238;2022-11-28T06:32:20;29.55;;;15.68;;
52322;SDS011;38263;52.920;6.238;2022-11-28T06:34:46;26.05;;;15.57;;
52322;SDS011;38263;52.920;6.238;2022-11-28T06:37:11;28.17;;;15.50;;
52322;SDS011;38263;52.920;6.238;2022-11-28T06:39:37;25.65;;;15.52;;
52322;SDS011;38263;52.920;6.238;2022-11-28T06:42:03;24.73;;;15.07;;
52322;SDS011;38263;52.920;6.238;2022-11-28T06:44:29;26.13;;;14.55;;
52322;SDS011;38263;52.920;6.238;2022-11-28T06:46:54;25.10;;;15.35;;
52322;SDS011;38263;52.920;6.238;2022-11-28T06:49:20;26.17;;;15.20;;
52322;SDS011;38263;52.920;6.238;2022-11-28T06:51:46;24.08;;;14.02;;
52322;SDS011;38263;52.920;6.238;2022-11-28T06:54:12;24.75;;;13.48;;
52322;SDS011;38263;52.920;6.238;2022-11-28T06:56:38;22.45;;;14.43;;
52322;SDS011;38263;52.920;6.238;2022-11-28T06:59:04;23.83;;;15.10;;
52322;SDS011;38263;52.920;6.238;2022-11-28T07:01:30;25.27;;;14.82;;
52322;SDS011;38263;52.920;6.238;2022-11-28T07:03:58;28.67;;;14.73;;
52322;SDS011;38263;52.920;6.238;2022-11-28T07:06:24;22.00;;;13.77;;
52322;SDS011;38263;52.920;6.238;2022-11-28T07:08:50;24.85;;;14.88;;
52322;SDS011;38263;52.920;6.238;2022-11-28T07:11:22;24.48;;;14.00;;
52322;SDS011;38263;52.920;6.238;2022-11-28T07:13:50;27.02;;;14.88;;
52322;SDS011;38263;52.920;6.238;2022-11-28T07:16:17;28.02;;;14.35;;
52322;SDS011;38263;52.920;6.238;2022-11-28T07:18:47;22.70;;;14.10;;
52322;SDS011;38263;52.920;6.238;2022-11-28T07:21:14;18.77;;;12.45;;
52322;SDS011;38263;52.920;6.238;2022-11-28T07:23:40;23.67;;;14.02;;
52322;SDS011;38263;52.920;6.238;2022-11-28T07:26:06;22.35;;;14.48;;
52322;SDS011;38263;52.920;6.238;2022-11-28T07:28:32;20.35;;;13.20;;
52322;SDS011;38263;52.920;6.238;2022-11-28T07:31:03;21.23;;;13.93;;
52322;SDS011;38263;52.920;6.238;2022-11-28T07:33:34;19.05;;;12.93;;
52322;SDS011;38263;52.920;6.238;2022-11-28T07:36:02;23.10;;;13.25;;
52322;SDS011;38263;52.920;6.238;2022-11-28T07:38:30;20.58;;;13.38;;
52322;SDS011;38263;52.920;6.238;2022-11-28T07:41:03;20.98;;;13.15;;
52322;SDS011;38263;52.920;6.238;2022-11-28T07:43:29;22.63;;;13.38;;
52322;SDS011;38263;52.920;6.238;2022-11-28T07:45:54;17.20;;;13.05;;
52322;SDS011;38263;52.920;6.238;2022-11-28T07:48:20;21.27;;;12.43;;
52322;SDS011;38263;52.920;6.238;2022-11-28T07:50:46;17.13;;;12.85;;
52322;SDS011;38263;52.920;6.238;2022-11-28T07:53:11;17.17;;;12.27;;
52322;SDS011;38263;52.920;6.238;2022-11-28T07:55:37;19.17;;;12.15;;
52322;SDS011;38263;52.920;6.238;2022-11-28T07:58:02;16.77;;;11.77;;
52322;SDS011;38263;52.920;6.238;2022-11-28T08:00:28;18.48;;;12.57;;
52322;SDS011;38263;52.920;6.238;2022-11-28T08:02:54;21.08;;;11.77;;
52322;SDS011;38263;52.920;6.238;2022-11-28T08:05:19;16.13;;;11.65;;
52322;SDS011;38263;52.920;6.238;2022-11-28T08:07:47;17.13;;;11.50;;
52322;SDS011;38263;52.920;6.238;2022-11-28T08:10:14;15.15;;;10.55;;
52322;SDS011;38263;52.920;6.238;2022-11-28T08:12:40;15.77;;;10.90;;
52322;SDS011;38263;52.920;6.238;2022-11-28T08:15:06;17.30;;;11.00;;
52322;SDS011;38263;52.920;6.238;2022-11-28T08:17:32;16.55;;;10.88;;
52322;SDS011;38263;52.920;6.238;2022-11-28T08:19:59;15.77;;;11.45;;
52322;SDS011;38263;52.920;6.238;2022-11-28T08:22:25;16.00;;;10.95;;
52322;SDS011;38263;52.920;6.238;2022-11-28T08:24:51;13.18;;;9.98;;
52322;SDS011;38263;52.920;6.238;2022-11-28T08:27:16;13.65;;;9.88;;
52322;SDS011;38263;52.920;6.238;2022-11-28T08:29:42;13.38;;;9.77;;
52322;SDS011;38263;52.920;6.238;2022-11-28T08:32:07;12.73;;;9.45;;
52322;SDS011;38263;52.920;6.238;2022-11-28T08:34:33;15.23;;;10.60;;
52322;SDS011;38263;52.920;6.238;2022-11-28T08:36:58;14.43;;;10.68;;
52322;SDS011;38263;52.920;6.238;2022-11-28T08:39:24;13.30;;;9.82;;
52322;SDS011;38263;52.920;6.238;2022-11-28T08:41:50;13.40;;;9.93;;
52322;SDS011;38263;52.920;6.238;2022-11-28T08:44:18;16.13;;;10.23;;
52322;SDS011;38263;52.920;6.238;2022-11-28T08:46:43;13.05;;;10.10;;
52322;SDS011;38263;52.920;6.238;2022-11-28T08:49:09;14.25;;;10.45;;
52322;SDS011;38263;52.920;6.238;2022-11-28T08:51:35;17.42;;;11.13;;
52322;SDS011;38263;52.920;6.238;2022-11-28T08:54:00;15.52;;;10.82;;
52322;SDS011;38263;52.920;6.238;2022-11-28T08:56:26;14.75;;;10.75;;
52322;SDS011;38263;52.920;6.238;2022-11-28T08:58:52;18.38;;;11.15;;
52322;SDS011;38263;52.920;6.238;2022-11-28T09:01:19;15.98;;;10.48;;
52322;SDS011;38263;52.920;6.238;2022-11-28T09:03:47;17.63;;;11.60;;
52322;SDS011;38263;52.920;6.238;2022-11-28T09:06:14;15.10;;;10.77;;
52322;SDS011;38263;52.920;6.238;2022-11-28T09:08:40;16.52;;;11.50;;
52322;SDS011;38263;52.920;6.238;2022-11-28T09:11:07;16.42;;;10.20;;
52322;SDS011;38263;52.920;6.238;2022-11-28T09:13:34;16.67;;;10.85;;
52322;SDS011;38263;52.920;6.238;2022-11-28T09:16:00;17.17;;;10.95;;
52322;SDS011;38263;52.920;6.238;2022-11-28T09:18:26;16.35;;;11.25;;
52322;SDS011;38263;52.920;6.238;2022-11-28T09:21:03;16.63;;;11.38;;
52322;SDS011;38263;52.920;6.238;2022-11-28T09:23:33;17.13;;;11.07;;
52322;SDS011;38263;52.920;6.238;2022-11-28T09:26:09;16.02;;;10.40;;
52322;SDS011;38263;52.920;6.238;2022-11-28T09:28:35;15.80;;;11.48;;
52322;SDS011;38263;52.920;6.238;2022-11-28T09:31:02;16.65;;;10.50;;
52322;SDS011;38263;52.920;6.238;2022-11-28T09:33:29;15.35;;;10.52;;
52322;SDS011;38263;52.920;6.238;2022-11-28T09:35:54;17.45;;;11.77;;
52322;SDS011;38263;52.920;6.238;2022-11-28T09:38:24;16.42;;;11.15;;
52322;SDS011;38263;52.920;6.238;2022-11-28T09:40:49;13.77;;;9.93;;
52322;SDS011;38263;52.920;6.238;2022-11-28T09:43:19;15.20;;;10.45;;
52322;SDS011;38263;52.920;6.238;2022-11-28T09:45:51;16.13;;;11.23;;
52322;SDS011;38263;52.920;6.238;2022-11-28T09:48:35;16.48;;;10.13;;
52322;SDS011;38263;52.920;6.238;2022-11-28T09:51:06;15.95;;;10.68;;
52322;SDS011;38263;52.920;6.238;2022-11-28T09:53:44;12.50;;;10.15;;
52322;SDS011;38263;52.920;6.238;2022-11-28T09:56:23;20.98;;;11.15;;
52322;SDS011;38263;52.920;6.238;2022-11-28T09:58:53;19.42;;;12.40;;
52322;SDS011;38263;52.920;6.238;2022-11-28T10:01:27;14.95;;;10.68;;
52322;SDS011;38263;52.920;6.238;2022-11-28T10:04:07;15.45;;;10.32;;
52322;SDS011;38263;52.920;6.238;2022-11-28T10:06:46;16.65;;;10.90;;
52322;SDS011;38263;52.920;6.238;2022-11-28T10:17:41;18.15;;;11.50;;
52322;SDS011;38263;52.920;6.238;2022-11-28T10:20:29;15.65;;;11.20;;
52322;SDS011;38263;52.920;6.238;2022-11-28T10:22:59;16.98;;;10.88;;
52322;SDS011;38263;52.920;6.238;2022-11-28T10:25:32;15.50;;;9.95;;
52322;SDS011;38263;52.920;6.238;2022-11-28T10:28:04;14.98;;;11.15;;
52322;SDS011;38263;52.920;6.238;2022-11-28T10:30:32;17.10;;;9.40;;
52322;SDS011;38263;52.920;6.238;2022-11-28T10:33:17;15.80;;;10.02;;
52322;SDS011;38263;52.920;6.238;2022-11-28T10:35:53;16.52;;;10.85;;
52322;SDS011;38263;52.920;6.238;2022-11-28T10:38:23;12.68;;;8.93;;
52322;SDS011;38263;52.920;6.238;2022-11-28T10:43:40;12.05;;;9.07;;
52322;SDS011;38263;52.920;6.238;2022-11-28T10:49:23;14.38;;;9.63;;
52322;SDS011;38263;52.920;6.238;2022-11-28T10:57:26;13.02;;;9.43;;
52322;SDS011;38263;52.920;6.238;2022-11-28T11:00:16;11.02;;;8.23;;
52322;SDS011;38263;52.920;6.238;2022-11-28T11:02:44;13.68;;;8.65;;
52322;SDS011;38263;52.920;6.238;2022-11-28T11:05:18;13.38;;;8.93;;
52322;SDS011;38263;52.920;6.238;2022-11-28T11:07:51;14.10;;;8.95;;
52322;SDS011;38263;52.920;6.238;2022-11-28T11:12:49;12.80;;;8.82;;
52322;SDS011;38263;52.920;6.238;2022-11-28T11:15:29;14.23;;;8.75;;
52322;SDS011;38263;52.920;6.238;2022-11-28T11:17:56;11.93;;;8.77;;
52322;SDS011;38263;52.920;6.238;2022-11-28T11:20:29;10.38;;;8.38;;
52322;SDS011;38263;52.920;6.238;2022-11-28T11:23:11;12.23;;;8.80;;
52322;SDS011;38263;52.920;6.238;2022-11-28T11:25:46;11.73;;;8.50;;
52322;SDS011;38263;52.920;6.238;2022-11-28T11:28:37;13.23;;;8.43;;
52322;SDS011;38263;52.920;6.238;2022-11-28T11:33:51;11.75;;;8.18;;
52322;SDS011;38263;52.920;6.238;2022-11-28T11:36:27;10.23;;;7.15;;
52322;SDS011;38263;52.920;6.238;2022-11-28T11:39:03;11.45;;;7.95;;
52322;SDS011;38263;52.920;6.238;2022-11-28T11:42:21;12.07;;;7.88;;
52322;SDS011;38263;52.920;6.238;2022-11-28T11:44:29;10.95;;;7.80;;
52322;SDS011;38263;52.920;6.238;2022-11-28T11:47:02;10.98;;;7.85;;
52322;SDS011;38263;52.920;6.238;2022-11-28T11:49:32;10.77;;;8.27;;
52322;SDS011;38263;52.920;6.238;2022-11-28T11:54:28;12.40;;;7.20;;
52322;SDS011;38263;52.920;6.238;2022-11-28T11:56:54;11.52;;;7.80;;
52322;SDS011;38263;52.920;6.238;2022-11-28T11:59:29;10.90;;;7.32;;
52322;SDS011;38263;52.920;6.238;2022-11-28T12:05:14;12.43;;;8.82;;
52322;SDS011;38263;52.920;6.238;2022-11-28T12:07:58;12.38;;;8.40;;
52322;SDS011;38263;52.920;6.238;2022-11-28T12:10:29;15.50;;;9.40;;
52322;SDS011;38263;52.920;6.238;2022-11-28T12:12:58;13.73;;;9.52;;
52322;SDS011;38263;52.920;6.238;2022-11-28T12:18:00;14.02;;;8.25;;
52322;SDS011;38263;52.920;6.238;2022-11-28T12:20:32;16.20;;;8.85;;
52322;SDS011;38263;52.920;6.238;2022-11-28T12:28:04;14.88;;;9.57;;
52322;SDS011;38263;52.920;6.238;2022-11-28T12:30:39;14.20;;;9.10;;
52322;SDS011;38263;52.920;6.238;2022-11-28T12:36:32;14.20;;;9.68;;
52322;SDS011;38263;52.920;6.238;2022-11-28T12:39:31;14.68;;;9.35;;
52322;SDS011;38263;52.920;6.238;2022-11-28T12:42:34;17.23;;;10.20;;
52322;SDS011;38263;52.920;6.238;2022-11-28T12:51:21;14.32;;;9.82;;
52322;SDS011;38263;52.920;6.238;2022-11-28T13:04:48;15.02;;;9.90;;
52322;SDS011;38263;52.920;6.238;2022-11-28T13:10:30;18.17;;;11.15;;
52322;SDS011;38263;52.920;6.238;2022-11-28T13:13:12;19.92;;;11.07;;
52322;SDS011;38263;52.920;6.238;2022-11-28T13:18:47;17.02;;;10.05;;
52322;SDS011;38263;52.920;6.238;2022-11-28T13:24:22;20.70;;;11.95;;
52322;SDS011;38263;52.920;6.238;2022-11-28T13:29:41;19.92;;;11.07;;
52322;SDS011;38263;52.920;6.238;2022-11-28T13:32:26;18.52;;;11.15;;
52322;SDS011;38263;52.920;6.238;2022-11-28T13:35:02;21.30;;;12.02;;
52322;SDS011;38263;52.920;6.238;2022-11-28T13:40:38;22.83;;;12.23;;
52322;SDS011;38263;52.920;6.238;2022-11-28T13:43:16;24.23;;;12.27;;
52322;SDS011;38263;52.920;6.238;2022-11-28T13:45:49;21.73;;;11.98;;
52322;SDS011;38263;52.920;6.238;2022-11-28T13:51:14;31.60;;;13.57;;
52322;SDS011;38263;52.920;6.238;2022-11-28T13:56:42;27.23;;;13.38;;
52322;SDS011;38263;52.920;6.238;2022-11-28T13:59:16;26.80;;;13.50;;
52322;SDS011;38263;52.920;6.238;2022-11-28T14:01:46;27.75;;;13.63;;
52322;SDS011;38263;52.920;6.238;2022-11-28T14:04:20;26.80;;;13.68;;
52322;SDS011;38263;52.920;6.238;2022-11-28T14:06:47;33.03;;;14.30;;
52322;SDS011;38263;52.920;6.238;2022-11-28T14:17:36;36.45;;;14.57;;
52322;SDS011;38263;52.920;6.238;2022-11-28T14:20:33;32.45;;;15.23;;
52322;SDS011;38263;52.920;6.238;2022-11-28T14:23:12;31.77;;;14.93;;
52322;SDS011;38263;52.920;6.238;2022-11-28T14:25:42;40.63;;;16.15;;
52322;SDS011;38263;52.920;6.238;2022-11-28T14:28:29;33.40;;;14.80;;
52322;SDS011;38263;52.920;6.238;2022-11-28T14:33:36;35.60;;;16.40;;
52322;SDS011;38263;52.920;6.238;2022-11-28T14:39:10;38.08;;;17.05;;
52322;SDS011;38263;52.920;6.238;2022-11-28T14:52:33;35.35;;;16.67;;
52322;SDS011;38263;52.920;6.238;2022-11-28T14:54:59;42.42;;;17.05;;
52322;SDS011;38263;52.920;6.238;2022-11-28T14:57:29;45.33;;;18.20;;
52322;SDS011;38263;52.920;6.238;2022-11-28T15:00:03;46.33;;;18.30;;
52322;SDS011;38263;52.920;6.238;2022-11-28T15:02:36;45.35;;;17.17;;
52322;SDS011;38263;52.920;6.238;2022-11-28T15:05:13;42.20;;;18.40;;
52322;SDS011;38263;52.920;6.238;2022-11-28T15:15:48;55.67;;;18.90;;
52322;SDS011;38263;52.920;6.238;2022-11-28T15:18:15;53.92;;;20.08;;
52322;SDS011;38263;52.920;6.238;2022-11-28T15:20:47;53.22;;;20.90;;
52322;SDS011;38263;52.920;6.238;2022-11-28T15:23:22;57.00;;;20.63;;
52322;SDS011;38263;52.920;6.238;2022-11-28T15:25:53;57.60;;;20.77;;
52322;SDS011;38263;52.920;6.238;2022-11-28T15:28:20;64.07;;;21.90;;
52322;SDS011;38263;52.920;6.238;2022-11-28T15:30:49;67.28;;;21.85;;
52322;SDS011;38263;52.920;6.238;2022-11-28T15:33:17;60.22;;;21.63;;
52322;SDS011;38263;52.920;6.238;2022-11-28T15:38:34;84.13;;;24.15;;
52322;SDS011;38263;52.920;6.238;2022-11-28T15:41:01;86.95;;;24.13;;
52322;SDS011;38263;52.920;6.238;2022-11-28T15:43:27;69.57;;;22.92;;
52322;SDS011;38263;52.920;6.238;2022-11-28T15:45:55;73.90;;;23.63;;
52322;SDS011;38263;52.920;6.238;2022-11-28T15:50:52;82.47;;;25.27;;
52322;SDS011;38263;52.920;6.238;2022-11-28T15:53:18;73.13;;;24.60;;
52322;SDS011;38263;52.920;6.238;2022-11-28T15:55:44;79.47;;;24.08;;
52322;SDS011;38263;52.920;6.238;2022-11-28T16:03:29;78.85;;;23.75;;
52322;SDS011;38263;52.920;6.238;2022-11-28T16:05:58;87.50;;;26.95;;
52322;SDS011;38263;52.920;6.238;2022-11-28T16:08:28;94.47;;;29.23;;
52322;SDS011;38263;52.920;6.238;2022-11-28T16:10:59;93.35;;;26.10;;
52322;SDS011;38263;52.920;6.238;2022-11-28T16:13:28;100.45;;;27.38;;
52322;SDS011;38263;52.920;6.238;2022-11-28T16:15:55;88.30;;;27.13;;
52322;SDS011;38263;52.920;6.238;2022-11-28T16:18:24;113.05;;;27.35;;
52322;SDS011;38263;52.920;6.238;2022-11-28T16:20:51;111.03;;;28.42;;
52322;SDS011;38263;52.920;6.238;2022-11-28T16:23:19;95.90;;;27.45;;
52322;SDS011;38263;52.920;6.238;2022-11-28T16:26:05;101.20;;;28.00;;
52322;SDS011;38263;52.920;6.238;2022-11-28T16:28:46;113.55;;;27.73;;
52322;SDS011;38263;52.920;6.238;2022-11-28T16:31:22;109.10;;;28.50;;
52322;SDS011;38263;52.920;6.238;2022-11-28T16:33:50;98.05;;;27.95;;
52322;SDS011;38263;52.920;6.238;2022-11-28T16:36:20;185.23;;;30.85;;
52322;SDS011;38263;52.920;6.238;2022-11-28T16:38:46;97.95;;;25.08;;
52322;SDS011;38263;52.920;6.238;2022-11-28T16:41:32;142.65;;;29.05;;
52322;SDS011;38263;52.920;6.238;2022-11-28T16:43:59;150.52;;;28.10;;
52322;SDS011;38263;52.920;6.238;2022-11-28T16:46:33;158.68;;;31.60;;
52322;SDS011;38263;52.920;6.238;2022-11-28T16:49:00;157.73;;;32.47;;
52322;SDS011;38263;52.920;6.238;2022-11-28T16:51:33;116.50;;;28.98;;
52322;SDS011;38263;52.920;6.238;2022-11-28T16:57:08;168.93;;;30.23;;
52322;SDS011;38263;52.920;6.238;2022-11-28T16:59:35;147.25;;;33.05;;
52322;SDS011;38263;52.920;6.238;2022-11-28T17:02:00;152.45;;;31.65;;
52322;SDS011;38263;52.920;6.238;2022-11-28T17:04:27;128.82;;;29.35;;
52322;SDS011;38263;52.920;6.238;2022-11-28T17:06:54;219.85;;;36.53;;
52322;SDS011;38263;52.920;6.238;2022-11-28T17:09:21;149.43;;;33.13;;
52322;SDS011;38263;52.920;6.238;2022-11-28T17:11:55;230.68;;;35.97;;
52322;SDS011;38263;52.920;6.238;2022-11-28T17:14:23;200.73;;;36.33;;
52322;SDS011;38263;52.920;6.238;2022-11-28T17:16:48;201.68;;;36.22;;
52322;SDS011;38263;52.920;6.238;2022-11-28T17:19:14;146.07;;;31.75;;
52322;SDS011;38263;52.920;6.238;2022-11-28T17:21:44;220.20;;;36.20;;
52322;SDS011;38263;52.920;6.238;2022-11-28T17:24:13;239.25;;;35.55;;
52322;SDS011;38263;52.920;6.238;2022-11-28T17:26:45;142.85;;;30.48;;